createdAt,value
2023-01-26T00:00:31.835Z,9.33
2023-01-26T00:01:33.526Z,10.33
2023-01-26T00:02:35.177Z,8.90
2023-01-26T00:03:36.860Z,10.33
2023-01-26T00:04:38.443Z,9.77
2023-01-26T00:05:40.538Z,10.37
2023-01-26T00:06:42.128Z,9.60
2023-01-26T00:07:45.570Z,8.53
2023-01-26T00:08:49.512Z,8.77
2023-01-26T00:09:51.037Z,8.83
2023-01-26T00:10:52.580Z,8.40
2023-01-26T00:11:54.178Z,7.90
2023-01-26T00:12:55.730Z,8.10
2023-01-26T00:13:59.019Z,8.10
2023-01-26T00:15:00.548Z,7.67
2023-01-26T00:16:03.291Z,7.77
2023-01-26T00:17:04.815Z,8.10
2023-01-26T00:18:06.387Z,7.37
2023-01-26T00:19:08.514Z,7.57
2023-01-26T00:20:10.952Z,7.27
2023-01-26T00:21:18.122Z,6.63
2023-01-26T00:22:20.038Z,7.63
2023-01-26T00:23:21.572Z,6.90
2023-01-26T00:24:23.145Z,6.40
2023-01-26T00:25:24.736Z,6.50
2023-01-26T00:26:27.919Z,7.10
2023-01-26T00:27:29.491Z,6.57
2023-01-26T00:28:31.110Z,7.33
2023-01-26T00:29:32.641Z,7.10
2023-01-26T00:30:34.273Z,6.97
2023-01-26T00:31:35.930Z,7.00
2023-01-26T00:32:37.866Z,7.40
2023-01-26T00:33:39.439Z,6.23
2023-01-26T00:34:40.999Z,6.13
2023-01-26T00:35:45.437Z,6.70
2023-01-26T00:36:46.954Z,6.60
2023-01-26T00:37:48.509Z,6.80
2023-01-26T00:38:50.206Z,6.40
2023-01-26T00:39:51.778Z,6.73
2023-01-26T00:40:53.819Z,7.17
2023-01-26T00:42:07.103Z,7.70
2023-01-26T00:43:08.620Z,6.80
2023-01-26T00:44:10.237Z,7.47
2023-01-26T00:45:11.760Z,7.90
2023-01-26T00:46:13.313Z,6.83
2023-01-26T00:47:14.928Z,6.77
2023-01-26T00:48:16.714Z,7.90
2023-01-26T00:49:18.284Z,6.43
2023-01-26T00:50:19.855Z,6.97
2023-01-26T00:51:21.372Z,7.20
2023-01-26T00:52:22.912Z,6.70
2023-01-26T00:53:24.451Z,6.80
2023-01-26T00:54:26.421Z,6.93
2023-01-26T00:55:32.437Z,6.70
2023-01-26T00:56:34.100Z,7.37
2023-01-26T00:57:35.687Z,7.10
2023-01-26T00:58:37.191Z,6.70
2023-01-26T00:59:38.789Z,6.43
2023-01-26T01:00:40.559Z,6.70
2023-01-26T01:01:42.302Z,6.40
2023-01-26T01:02:44.252Z,6.50
2023-01-26T01:03:45.865Z,6.70
2023-01-26T01:04:47.443Z,6.97
2023-01-26T01:05:48.962Z,7.30
2023-01-26T01:06:50.658Z,6.13
2023-01-26T01:07:52.320Z,6.40
2023-01-26T01:08:53.848Z,6.57
2023-01-26T01:09:55.461Z,6.40
2023-01-26T01:11:08.569Z,6.10
2023-01-26T01:12:10.136Z,6.70
2023-01-26T01:13:11.655Z,6.87
2023-01-26T01:14:14.306Z,6.50
2023-01-26T01:15:16.140Z,6.47
2023-01-26T01:16:18.072Z,6.73
2023-01-26T01:17:19.718Z,7.20
2023-01-26T01:18:21.234Z,6.63
2023-01-26T01:19:23.145Z,6.43
2023-01-26T01:20:24.709Z,6.37
2023-01-26T01:21:26.359Z,6.63
2023-01-26T01:22:27.977Z,6.00
2023-01-26T01:23:29.508Z,6.57
2023-01-26T01:24:31.062Z,6.13
2023-01-26T01:25:34.808Z,6.47
2023-01-26T01:26:36.500Z,6.73
2023-01-26T01:27:38.087Z,6.67
2023-01-26T01:28:40.701Z,6.50
2023-01-26T01:29:42.217Z,7.27
2023-01-26T01:30:43.912Z,5.90
2023-01-26T01:31:45.515Z,6.20
2023-01-26T01:32:49.708Z,6.53
2023-01-26T01:33:53.380Z,6.20
2023-01-26T01:34:54.898Z,7.20
2023-01-26T01:36:00.844Z,6.60
2023-01-26T01:37:02.377Z,6.03
2023-01-26T01:38:04.025Z,6.10
2023-01-26T01:39:05.668Z,6.27
2023-01-26T01:40:11.354Z,6.53
2023-01-26T01:41:14.582Z,7.03
2023-01-26T01:42:16.175Z,5.93
2023-01-26T01:43:18.068Z,6.23
2023-01-26T01:44:22.264Z,5.83
2023-01-26T01:45:26.985Z,6.37
2023-01-26T01:46:34.006Z,6.60
2023-01-26T01:47:35.685Z,6.63
2023-01-26T01:48:45.865Z,5.93
2023-01-26T01:49:50.948Z,7.00
2023-01-26T01:50:56.238Z,6.20
2023-01-26T01:52:04.166Z,6.50
2023-01-26T01:53:10.647Z,6.77
2023-01-26T01:54:20.866Z,6.23
2023-01-26T01:55:25.579Z,7.10
2023-01-26T01:56:29.724Z,6.50
2023-01-26T01:57:53.524Z,6.40
2023-01-26T01:58:58.484Z,6.67
2023-01-26T02:00:09.395Z,6.53
2023-01-26T02:01:11.480Z,6.33
2023-01-26T02:02:14.649Z,6.87
2023-01-26T02:03:21.416Z,7.57
2023-01-26T02:04:25.458Z,7.37
2023-01-26T02:05:33.406Z,7.10
2023-01-26T02:06:41.110Z,7.33
2023-01-26T02:07:43.781Z,7.23
2023-01-26T02:08:49.698Z,7.40
2023-01-26T02:10:10.677Z,7.13
2023-01-26T02:11:17.093Z,7.33
2023-01-26T02:12:23.068Z,7.33
2023-01-26T02:13:27.320Z,6.87
2023-01-26T02:14:29.722Z,6.83
2023-01-26T02:15:31.390Z,7.77
2023-01-26T02:16:33.049Z,7.77
2023-01-26T02:17:34.684Z,8.13
2023-01-26T02:18:36.495Z,7.47
2023-01-26T02:20:19.373Z,7.90
2023-01-26T02:21:22.981Z,7.20
2023-01-26T02:22:42.231Z,7.57
2023-01-26T02:24:02.402Z,7.37
2023-01-26T02:25:18.911Z,8.10
2023-01-26T02:26:23.695Z,8.00
2023-01-26T02:27:25.495Z,8.20
2023-01-26T02:28:27.959Z,8.17
2023-01-26T02:29:29.743Z,7.83
2023-01-26T02:30:31.944Z,8.13
2023-01-26T02:31:33.701Z,7.33
2023-01-26T02:32:35.238Z,7.73
2023-01-26T02:33:37.194Z,7.67
2023-01-26T02:34:38.749Z,7.43
2023-01-26T02:35:40.296Z,7.93
2023-01-26T02:36:41.881Z,8.40
2023-01-26T02:37:43.482Z,8.67
2023-01-26T02:38:53.560Z,8.00
2023-01-26T02:40:36.225Z,8.20
2023-01-26T02:41:57.610Z,8.40
2023-01-26T02:42:59.187Z,8.47
2023-01-26T02:44:05.074Z,8.07
2023-01-26T02:45:07.638Z,8.50
2023-01-26T02:46:09.230Z,8.20
2023-01-26T02:47:15.346Z,8.83
2023-01-26T02:48:36.977Z,8.03
2023-01-26T02:49:47.494Z,9.13
2023-01-26T02:50:49.010Z,9.20
2023-01-26T02:51:50.551Z,9.30
2023-01-26T02:52:52.089Z,9.30
2023-01-26T02:53:53.630Z,9.03
2023-01-26T02:55:13.861Z,10.17
2023-01-26T02:56:15.395Z,9.73
2023-01-26T02:57:16.899Z,9.63
2023-01-26T02:58:18.501Z,9.30
2023-01-26T02:59:20.020Z,9.90
2023-01-26T03:00:27.114Z,8.73
2023-01-26T03:01:30.433Z,9.77
2023-01-26T03:02:33.147Z,9.43
2023-01-26T03:03:44.983Z,9.37
2023-01-26T03:04:46.552Z,9.30
2023-01-26T03:05:48.665Z,9.73
2023-01-26T03:06:50.413Z,10.10
2023-01-26T03:07:52.085Z,9.43
2023-01-26T03:08:53.718Z,10.27
2023-01-26T03:09:55.315Z,9.83
2023-01-26T03:10:57.345Z,10.13
2023-01-26T03:11:58.895Z,8.43
2023-01-26T03:13:00.584Z,9.07
2023-01-26T03:14:02.147Z,10.13
2023-01-26T03:15:23.819Z,9.00
2023-01-26T03:16:25.389Z,9.33
2023-01-26T03:17:26.901Z,8.80
2023-01-26T03:18:47.213Z,10.20
2023-01-26T03:20:07.338Z,9.57
2023-01-26T03:21:32.638Z,10.20
2023-01-26T03:22:52.643Z,8.90
2023-01-26T03:24:12.830Z,9.83
2023-01-26T03:25:33.294Z,8.97
2023-01-26T03:26:53.671Z,9.20
2023-01-26T03:27:55.207Z,9.83
2023-01-26T03:28:56.716Z,9.23
2023-01-26T03:29:58.533Z,8.80
2023-01-26T03:31:00.266Z,8.07
2023-01-26T03:32:01.955Z,8.57
2023-01-26T03:33:03.513Z,9.67
2023-01-26T03:34:05.016Z,8.40
2023-01-26T03:35:07.311Z,8.23
2023-01-26T03:36:09.616Z,8.53
2023-01-26T03:37:11.452Z,8.13
2023-01-26T03:38:13.695Z,8.67
2023-01-26T03:39:34.175Z,8.83
2023-01-26T03:40:54.320Z,8.13
2023-01-26T03:42:14.204Z,8.67
2023-01-26T03:43:33.938Z,8.03
2023-01-26T03:44:53.783Z,8.03
2023-01-26T03:46:13.844Z,8.10
2023-01-26T03:47:33.731Z,8.43
2023-01-26T03:48:53.625Z,9.20
2023-01-26T03:50:13.824Z,8.37
2023-01-26T03:51:33.976Z,8.30
2023-01-26T03:52:53.833Z,8.37
2023-01-26T03:54:14.252Z,7.57
2023-01-26T03:55:34.195Z,8.47
2023-01-26T03:56:35.887Z,8.23
2023-01-26T03:57:37.462Z,8.53
2023-01-26T03:58:39.025Z,8.80
2023-01-26T03:59:40.700Z,9.37
2023-01-26T04:00:42.310Z,9.37
2023-01-26T04:02:05.460Z,8.97
2023-01-26T04:03:25.398Z,8.63
2023-01-26T04:04:45.542Z,8.40
2023-01-26T04:06:15.584Z,8.10
2023-01-26T04:07:37.197Z,8.77
2023-01-26T04:08:38.701Z,8.63
2023-01-26T04:09:40.217Z,8.20
2023-01-26T04:10:41.767Z,9.07
2023-01-26T04:11:43.349Z,9.40
2023-01-26T04:12:44.876Z,8.60
2023-01-26T04:14:04.715Z,9.37
2023-01-26T04:15:25.331Z,8.93
2023-01-26T04:16:45.830Z,8.50
2023-01-26T04:18:05.790Z,7.83
2023-01-26T04:19:26.128Z,9.20
2023-01-26T04:20:46.064Z,9.07
2023-01-26T04:21:47.595Z,8.70
2023-01-26T04:22:49.110Z,8.53
2023-01-26T04:23:51.149Z,8.60
2023-01-26T04:24:52.817Z,8.23
2023-01-26T04:25:54.376Z,8.67
2023-01-26T04:26:55.927Z,7.80
2023-01-26T04:27:57.470Z,7.87
2023-01-26T04:28:58.969Z,7.37
2023-01-26T04:30:01.586Z,8.03
2023-01-26T04:31:06.378Z,8.33
2023-01-26T04:32:07.897Z,8.70
2023-01-26T04:33:09.513Z,7.63
2023-01-26T04:34:13.788Z,8.20
2023-01-26T04:35:15.451Z,7.40
2023-01-26T04:36:16.964Z,7.40
2023-01-26T04:37:18.709Z,7.50
2023-01-26T04:38:20.225Z,6.70
2023-01-26T04:39:21.722Z,7.80
2023-01-26T04:40:23.247Z,7.80
2023-01-26T04:41:24.832Z,7.47
2023-01-26T04:42:26.434Z,6.83
2023-01-26T04:43:28.143Z,7.33
2023-01-26T04:44:29.753Z,7.73
2023-01-26T04:45:31.349Z,7.70
2023-01-26T04:46:33.367Z,7.90
2023-01-26T04:47:35.000Z,7.93
2023-01-26T04:48:36.994Z,8.13
2023-01-26T04:49:38.609Z,7.47
2023-01-26T04:50:40.139Z,8.20
2023-01-26T04:51:41.726Z,7.17
2023-01-26T04:52:43.377Z,6.57
2023-01-26T04:53:44.958Z,7.23
2023-01-26T04:54:46.483Z,7.43
2023-01-26T04:55:48.069Z,6.70
2023-01-26T04:56:49.636Z,7.47
2023-01-26T04:57:51.162Z,6.93
2023-01-26T04:58:54.313Z,6.37
2023-01-26T04:59:55.953Z,7.60
2023-01-26T05:00:58.443Z,7.70
2023-01-26T05:02:00.313Z,6.53
2023-01-26T05:03:01.833Z,7.33
2023-01-26T05:04:05.143Z,6.40
2023-01-26T05:05:07.013Z,7.27
2023-01-26T05:06:08.530Z,7.33
2023-01-26T05:07:10.044Z,6.67
2023-01-26T05:08:11.624Z,6.70
2023-01-26T05:09:13.179Z,6.63
2023-01-26T05:10:15.958Z,7.30
2023-01-26T05:11:17.818Z,7.30
2023-01-26T05:12:34.639Z,7.17
2023-01-26T05:13:36.303Z,7.17
2023-01-26T05:14:37.819Z,7.13
2023-01-26T05:15:39.576Z,7.10
2023-01-26T05:16:43.043Z,7.87
2023-01-26T05:17:44.764Z,7.47
2023-01-26T05:18:46.402Z,7.40
2023-01-26T05:19:47.927Z,7.07
2023-01-26T05:20:49.506Z,7.50
2023-01-26T05:21:51.013Z,6.27
2023-01-26T05:22:52.621Z,7.13
2023-01-26T05:23:55.173Z,6.60
2023-01-26T05:24:56.760Z,6.87
2023-01-26T05:25:58.358Z,6.57
2023-01-26T05:27:18.425Z,7.23
2023-01-26T05:28:19.932Z,7.27
2023-01-26T05:29:21.432Z,7.90
2023-01-26T05:30:22.989Z,7.83
2023-01-26T05:31:24.622Z,6.83
2023-01-26T05:32:30.933Z,7.27
2023-01-26T05:33:32.722Z,7.70
2023-01-26T05:34:34.356Z,7.67
2023-01-26T05:35:36.242Z,7.17
2023-01-26T05:36:37.742Z,7.73
2023-01-26T05:37:39.555Z,7.13
2023-01-26T05:38:41.096Z,10.80
2023-01-26T05:39:42.714Z,17.90
2023-01-26T05:40:44.922Z,6.93
2023-01-26T05:41:46.451Z,7.27
2023-01-26T05:42:48.071Z,7.33
2023-01-26T05:43:49.646Z,7.40
2023-01-26T05:44:51.549Z,8.07
2023-01-26T05:45:53.105Z,7.23
2023-01-26T05:46:54.837Z,7.60
2023-01-26T05:47:56.388Z,6.87
2023-01-26T05:48:57.915Z,7.57
2023-01-26T05:49:59.450Z,7.53
2023-01-26T05:51:03.691Z,7.63
2023-01-26T05:52:18.458Z,7.50
2023-01-26T05:53:20.087Z,7.47
2023-01-26T05:54:21.716Z,7.20
2023-01-26T05:55:23.557Z,7.03
2023-01-26T05:56:25.106Z,6.63
2023-01-26T05:57:26.649Z,7.13
2023-01-26T05:58:28.240Z,7.73
2023-01-26T05:59:29.840Z,7.10
2023-01-26T06:00:31.359Z,7.57
2023-01-26T06:01:32.941Z,7.20
2023-01-26T06:02:34.541Z,8.20
2023-01-26T06:03:36.110Z,6.50
2023-01-26T06:04:37.959Z,7.73
2023-01-26T06:05:39.678Z,7.43
2023-01-26T06:06:41.234Z,8.50
2023-01-26T06:07:43.274Z,7.13
2023-01-26T06:08:44.870Z,8.00
2023-01-26T06:09:47.398Z,7.77
2023-01-26T06:10:48.952Z,7.30
2023-01-26T06:11:50.691Z,7.47
2023-01-26T06:12:52.234Z,7.17
2023-01-26T06:13:54.055Z,7.17
2023-01-26T06:14:55.625Z,7.17
2023-01-26T06:16:00.103Z,7.30
2023-01-26T06:17:01.633Z,6.73
2023-01-26T06:18:03.275Z,7.30
2023-01-26T06:19:04.911Z,6.87
2023-01-26T06:20:09.110Z,6.70
2023-01-26T06:21:10.756Z,6.77
2023-01-26T06:22:13.858Z,7.17
2023-01-26T06:23:15.394Z,7.30
2023-01-26T06:24:16.986Z,7.20
2023-01-26T06:25:18.751Z,6.97
2023-01-26T06:26:20.333Z,7.23
2023-01-26T06:27:21.988Z,8.17
2023-01-26T06:28:23.554Z,7.10
2023-01-26T06:29:25.137Z,6.97
2023-01-26T06:30:26.851Z,7.77
2023-01-26T06:31:29.873Z,7.10
2023-01-26T06:32:31.564Z,7.47
2023-01-26T06:33:34.941Z,8.00
2023-01-26T06:34:36.504Z,7.50
2023-01-26T06:35:38.170Z,7.93
2023-01-26T06:36:40.803Z,7.77
2023-01-26T06:37:42.370Z,7.70
2023-01-26T06:38:49.485Z,8.20
2023-01-26T06:39:50.995Z,8.07
2023-01-26T06:40:52.632Z,8.77
2023-01-26T06:41:54.212Z,8.70
2023-01-26T06:42:55.728Z,9.00
2023-01-26T06:43:57.273Z,8.23
2023-01-26T06:44:59.026Z,8.40
2023-01-26T06:46:02.675Z,8.20
2023-01-26T06:47:07.027Z,8.53
2023-01-26T06:48:08.531Z,8.40
2023-01-26T06:49:10.189Z,8.27
2023-01-26T06:50:12.170Z,8.40
2023-01-26T06:51:16.864Z,7.40
2023-01-26T06:52:31.873Z,7.40
2023-01-26T06:53:38.367Z,7.97
2023-01-26T06:54:39.959Z,8.67
2023-01-26T06:55:41.973Z,8.30
2023-01-26T06:56:43.739Z,8.60
2023-01-26T06:57:45.287Z,8.77
2023-01-26T06:58:46.889Z,8.53
2023-01-26T06:59:48.469Z,8.83
2023-01-26T07:00:50.183Z,9.10
2023-01-26T07:01:51.755Z,8.23
2023-01-26T07:02:53.493Z,8.67
2023-01-26T07:03:55.622Z,25.43
2023-01-26T07:04:57.544Z,8.93
2023-01-26T07:05:59.072Z,8.83
2023-01-26T07:07:00.609Z,9.40
2023-01-26T07:08:04.318Z,8.03
2023-01-26T07:09:05.848Z,8.90
2023-01-26T07:10:07.840Z,9.23
2023-01-26T07:11:11.140Z,9.13
2023-01-26T07:12:12.749Z,8.40
2023-01-26T07:13:14.317Z,9.30
2023-01-26T07:14:15.909Z,9.53
2023-01-26T07:15:17.544Z,8.57
2023-01-26T07:16:19.381Z,9.20
2023-01-26T07:17:20.975Z,9.33
2023-01-26T07:18:22.552Z,9.37
2023-01-26T07:19:24.070Z,8.70
2023-01-26T07:20:26.164Z,8.17
2023-01-26T07:21:27.953Z,8.43
2023-01-26T07:22:29.509Z,8.30
2023-01-26T07:23:33.017Z,8.93
2023-01-26T07:24:35.516Z,8.33
2023-01-26T07:25:37.065Z,8.93
2023-01-26T07:26:38.793Z,9.03
2023-01-26T07:27:40.339Z,8.83
2023-01-26T07:28:41.913Z,10.07
2023-01-26T07:29:43.521Z,9.90
2023-01-26T07:30:45.282Z,9.50
2023-01-26T07:31:46.969Z,9.27
2023-01-26T07:32:48.528Z,9.40
2023-01-26T07:33:50.124Z,9.27
2023-01-26T07:34:51.653Z,9.73
2023-01-26T07:35:54.169Z,10.03
2023-01-26T07:36:55.701Z,9.73
2023-01-26T07:37:58.987Z,9.67
2023-01-26T07:39:00.630Z,9.60
2023-01-26T07:40:02.436Z,9.27
2023-01-26T07:41:10.130Z,9.40
2023-01-26T07:42:11.777Z,9.97
2023-01-26T07:43:15.055Z,9.47
2023-01-26T07:44:16.758Z,9.80
2023-01-26T07:45:18.455Z,10.40
2023-01-26T07:46:20.017Z,10.07
2023-01-26T07:47:21.573Z,9.80
2023-01-26T07:48:24.453Z,9.90
2023-01-26T07:49:26.024Z,9.33
2023-01-26T07:50:27.572Z,9.97
2023-01-26T07:51:29.080Z,10.10
2023-01-26T07:52:30.711Z,10.27
2023-01-26T07:53:34.222Z,10.07
2023-01-26T07:54:35.843Z,9.90
2023-01-26T07:55:37.368Z,9.93
2023-01-26T07:56:39.108Z,9.40
2023-01-26T07:57:41.389Z,9.50
2023-01-26T07:58:43.120Z,9.33
2023-01-26T07:59:44.639Z,9.80
2023-01-26T08:00:49.160Z,9.53
2023-01-26T08:01:51.115Z,8.47
2023-01-26T08:02:52.809Z,9.03
2023-01-26T08:03:54.401Z,8.70
2023-01-26T08:04:55.968Z,9.10
2023-01-26T08:05:57.528Z,8.30
2023-01-26T08:06:59.113Z,8.87
2023-01-26T08:08:01.582Z,8.93
2023-01-26T08:09:03.285Z,9.50
2023-01-26T08:10:05.335Z,9.53
2023-01-26T08:11:07.733Z,8.67
2023-01-26T08:12:09.251Z,8.70
2023-01-26T08:13:10.792Z,8.37
2023-01-26T08:14:12.451Z,9.20
2023-01-26T08:15:14.185Z,7.67
2023-01-26T08:16:15.776Z,8.80
2023-01-26T08:17:17.939Z,8.10
2023-01-26T08:18:19.929Z,8.70
2023-01-26T08:19:21.447Z,8.77
2023-01-26T08:20:23.437Z,8.20
2023-01-26T08:21:25.049Z,8.63
2023-01-26T08:22:26.611Z,8.83
2023-01-26T08:23:28.279Z,9.00
2023-01-26T08:24:30.493Z,9.53
2023-01-26T08:25:33.809Z,8.90
2023-01-26T08:26:35.339Z,9.87
2023-01-26T08:27:36.870Z,9.20
2023-01-26T08:28:38.926Z,8.90
2023-01-26T08:29:40.499Z,9.40
2023-01-26T08:30:42.268Z,9.03
2023-01-26T08:31:43.818Z,9.83
2023-01-26T08:32:45.359Z,23.33
2023-01-26T08:33:50.431Z,10.10
2023-01-26T08:34:52.070Z,9.57
2023-01-26T08:35:53.666Z,9.33
2023-01-26T08:36:55.252Z,10.13
2023-01-26T08:37:56.800Z,9.30
2023-01-26T08:38:58.349Z,9.33
2023-01-26T08:39:59.912Z,9.23
2023-01-26T08:41:02.345Z,8.63
2023-01-26T08:42:04.071Z,9.20
2023-01-26T08:43:05.706Z,10.00
2023-01-26T08:44:07.377Z,9.63
2023-01-26T08:45:09.835Z,9.30
2023-01-26T08:46:11.587Z,9.83
2023-01-26T08:47:13.179Z,10.40
2023-01-26T08:48:14.731Z,9.87
2023-01-26T08:49:16.399Z,9.50
2023-01-26T08:50:18.012Z,10.03
2023-01-26T08:51:19.536Z,9.87
2023-01-26T08:52:21.779Z,10.67
2023-01-26T08:53:24.758Z,8.83
2023-01-26T08:54:26.330Z,9.17
2023-01-26T08:55:28.623Z,8.20
2023-01-26T08:56:30.225Z,7.93
2023-01-26T08:57:31.772Z,8.77
2023-01-26T08:58:33.886Z,8.53
2023-01-26T08:59:35.445Z,8.83
2023-01-26T09:00:37.224Z,8.67
2023-01-26T09:01:38.841Z,8.30
2023-01-26T09:02:40.471Z,7.90
2023-01-26T09:03:43.342Z,7.77
2023-01-26T09:04:44.848Z,7.70
2023-01-26T09:05:46.368Z,7.83
2023-01-26T09:06:47.962Z,7.43
2023-01-26T09:07:49.591Z,7.20
2023-01-26T09:08:51.147Z,7.40
2023-01-26T09:09:52.635Z,7.53
2023-01-26T09:10:54.137Z,7.43
2023-01-26T09:11:56.320Z,7.63
2023-01-26T09:12:58.952Z,7.57
2023-01-26T09:14:00.465Z,6.63
2023-01-26T09:15:02.035Z,6.97
2023-01-26T09:16:08.521Z,6.23
2023-01-26T09:17:10.088Z,6.60
2023-01-26T09:18:11.777Z,6.93
2023-01-26T09:19:13.343Z,6.50
2023-01-26T09:20:15.005Z,6.47
2023-01-26T09:21:16.600Z,6.67
2023-01-26T09:22:18.181Z,5.70
2023-01-26T09:23:20.695Z,5.80
2023-01-26T09:24:22.664Z,6.17
2023-01-26T09:25:24.223Z,6.50
2023-01-26T09:26:25.913Z,6.67
2023-01-26T09:27:27.731Z,7.07
2023-01-26T09:28:29.628Z,6.80
2023-01-26T09:29:31.270Z,6.73
2023-01-26T09:30:33.548Z,6.80
2023-01-26T09:31:35.314Z,6.17
2023-01-26T09:32:36.908Z,6.73
2023-01-26T09:33:38.574Z,6.00
2023-01-26T09:34:40.188Z,6.63
2023-01-26T09:35:41.850Z,5.93
2023-01-26T09:36:43.373Z,6.30
2023-01-26T09:37:44.975Z,6.93
2023-01-26T09:38:46.616Z,6.23
2023-01-26T09:39:48.140Z,6.73
2023-01-26T09:41:20.085Z,6.20
2023-01-26T09:42:43.726Z,5.97
2023-01-26T09:43:52.578Z,6.40
2023-01-26T09:45:14.155Z,6.13
2023-01-26T09:46:24.892Z,6.67
2023-01-26T09:47:36.939Z,5.73
2023-01-26T09:49:01.112Z,6.63
2023-01-26T09:50:10.975Z,6.13
2023-01-26T09:51:40.111Z,6.70
2023-01-26T09:52:55.605Z,6.30
2023-01-26T09:54:02.335Z,6.10
2023-01-26T09:55:15.268Z,6.40
2023-01-26T09:56:20.289Z,6.40
2023-01-26T09:57:35.630Z,6.03
2023-01-26T09:58:40.938Z,6.20
2023-01-26T09:59:53.405Z,6.20
2023-01-26T10:01:00.391Z,6.67
2023-01-26T10:02:30.472Z,5.77
2023-01-26T10:03:48.202Z,5.80
2023-01-26T10:04:56.387Z,6.70
2023-01-26T10:06:21.681Z,6.03
2023-01-26T10:07:23.242Z,6.30
2023-01-26T10:08:26.963Z,6.17
2023-01-26T10:09:34.991Z,6.30
2023-01-26T10:10:41.785Z,6.70
2023-01-26T10:11:47.996Z,5.53
2023-01-26T10:12:51.548Z,6.43
2023-01-26T10:14:02.659Z,6.53
2023-01-26T10:15:22.149Z,6.50
2023-01-26T10:16:25.275Z,6.83
2023-01-26T10:17:37.062Z,6.40
2023-01-26T10:18:54.604Z,7.00
2023-01-26T10:20:04.543Z,6.30
2023-01-26T10:21:10.578Z,6.90
2023-01-26T10:22:44.699Z,6.40
2023-01-26T10:23:49.700Z,7.77
2023-01-26T10:24:53.147Z,6.90
2023-01-26T10:26:07.209Z,7.67
2023-01-26T10:27:14.133Z,7.07
2023-01-26T10:28:17.178Z,7.20
2023-01-26T10:29:19.119Z,7.77
2023-01-26T10:30:22.157Z,7.53
2023-01-26T10:31:28.112Z,6.77
2023-01-26T10:32:29.839Z,6.57
2023-01-26T10:33:34.111Z,6.60
2023-01-26T10:34:38.373Z,6.67
2023-01-26T10:35:39.929Z,6.93
2023-01-26T10:36:44.044Z,6.73
2023-01-26T10:37:46.570Z,7.20
2023-01-26T10:38:49.495Z,6.60
2023-01-26T10:39:57.556Z,6.80
2023-01-26T10:41:03.421Z,6.80
2023-01-26T10:42:04.962Z,6.73
2023-01-26T10:43:19.064Z,6.87
2023-01-26T10:44:39.217Z,6.83
2023-01-26T10:45:46.860Z,7.10
2023-01-26T10:47:18.624Z,6.30
2023-01-26T10:48:24.112Z,6.37
2023-01-26T10:49:28.241Z,6.77
2023-01-26T10:50:31.839Z,6.70
2023-01-26T10:51:35.193Z,6.67
2023-01-26T10:52:36.831Z,6.80
2023-01-26T10:53:38.393Z,6.27
2023-01-26T10:54:43.650Z,6.20
2023-01-26T10:56:04.883Z,7.07
2023-01-26T10:57:30.737Z,7.20
2023-01-26T10:58:53.093Z,6.50
2023-01-26T10:59:59.171Z,6.53
2023-01-26T11:01:00.754Z,6.63
2023-01-26T11:02:15.864Z,7.43
2023-01-26T11:03:18.866Z,5.50
2023-01-26T11:04:20.718Z,6.80
2023-01-26T11:05:24.829Z,6.40
2023-01-26T11:06:30.603Z,6.50
2023-01-26T11:07:44.332Z,6.60
2023-01-26T11:08:45.931Z,6.60
2023-01-26T11:09:47.595Z,6.23
2023-01-26T11:10:52.964Z,6.13
2023-01-26T11:12:02.713Z,7.27
2023-01-26T11:13:20.577Z,6.27
2023-01-26T11:14:22.162Z,6.10
2023-01-26T11:15:27.277Z,6.40
2023-01-26T11:16:29.026Z,5.53
2023-01-26T11:17:58.606Z,6.30
2023-01-26T11:19:14.285Z,6.63
2023-01-26T11:20:31.060Z,6.63
2023-01-26T11:21:40.903Z,6.70
2023-01-26T11:22:54.991Z,6.33
2023-01-26T11:24:02.501Z,6.77
2023-01-26T11:25:32.049Z,6.27
2023-01-26T11:26:51.791Z,6.83
2023-01-26T11:28:31.649Z,6.80
2023-01-26T11:30:06.296Z,7.20
2023-01-26T11:31:50.054Z,7.53
2023-01-26T11:33:00.648Z,6.47
2023-01-26T11:34:33.059Z,6.83
2023-01-26T11:36:02.113Z,7.63
2023-01-26T11:37:31.638Z,7.97
2023-01-26T11:38:40.051Z,8.40
2023-01-26T11:40:17.087Z,8.37
2023-01-26T11:41:39.839Z,9.13
2023-01-26T11:43:07.121Z,8.87
2023-01-26T11:44:17.829Z,8.57
2023-01-26T11:45:57.256Z,8.77
2023-01-26T11:47:22.200Z,8.07
2023-01-26T11:48:57.829Z,8.03
2023-01-26T11:50:28.803Z,9.43
2023-01-26T11:51:39.693Z,9.40
2023-01-26T11:52:53.486Z,9.97
2023-01-26T11:53:57.606Z,9.70
2023-01-26T11:55:16.911Z,9.67
2023-01-26T11:56:18.446Z,10.50
2023-01-26T11:57:41.821Z,10.93
2023-01-26T11:58:56.963Z,9.43
2023-01-26T12:00:32.630Z,8.97
2023-01-26T12:01:40.050Z,8.77
2023-01-26T12:02:43.400Z,8.20
2023-01-26T12:03:50.402Z,8.13
2023-01-26T12:04:55.775Z,7.37
2023-01-26T12:06:07.328Z,8.00
2023-01-26T12:07:15.023Z,8.33
2023-01-26T12:08:25.719Z,8.13
2023-01-26T12:09:47.251Z,8.47
2023-01-26T12:10:57.861Z,8.90
2023-01-26T12:12:33.243Z,10.37
2023-01-26T12:13:42.278Z,12.27
2023-01-26T12:14:59.521Z,13.70
2023-01-26T12:16:18.004Z,14.97
2023-01-26T12:17:59.406Z,14.80
2023-01-26T12:19:12.810Z,15.33
2023-01-26T12:20:35.403Z,15.23
2023-01-26T12:21:42.493Z,16.07
2023-01-26T12:23:13.881Z,16.13
2023-01-26T12:25:08.146Z,17.40
2023-01-26T12:26:13.689Z,17.20
2023-01-26T12:27:36.548Z,16.10
2023-01-26T12:29:09.198Z,15.77
2023-01-26T12:30:19.842Z,15.63
2023-01-26T12:31:34.183Z,15.47
2023-01-26T12:32:35.856Z,15.63
2023-01-26T12:33:38.476Z,15.53
2023-01-26T12:34:40.319Z,17.27
2023-01-26T12:35:50.015Z,16.70
2023-01-26T12:37:10.359Z,15.73
2023-01-26T12:38:37.568Z,17.63
2023-01-26T12:39:58.971Z,18.63
2023-01-26T12:41:32.957Z,18.70
2023-01-26T12:42:47.380Z,18.77
2023-01-26T12:44:10.228Z,21.07
2023-01-26T12:45:18.891Z,19.27
2023-01-26T12:46:24.872Z,17.47
2023-01-26T12:47:34.990Z,18.03
2023-01-26T12:48:46.041Z,18.47
2023-01-26T12:50:15.995Z,17.63
2023-01-26T12:51:28.129Z,19.23
2023-01-26T12:52:38.551Z,19.63
2023-01-26T12:53:51.826Z,19.03
2023-01-26T12:55:28.977Z,18.00
2023-01-26T12:56:42.733Z,19.43
2023-01-26T12:58:17.192Z,21.43
2023-01-26T12:59:46.986Z,20.53
2023-01-26T13:01:04.087Z,19.63
2023-01-26T13:02:29.688Z,21.47
2023-01-26T13:03:41.865Z,19.07
2023-01-26T13:04:47.230Z,19.17
2023-01-26T13:05:56.479Z,19.33
2023-01-26T13:07:35.315Z,19.50
2023-01-26T13:08:36.771Z,19.00
2023-01-26T13:09:38.363Z,18.03
2023-01-26T13:10:46.238Z,18.63
2023-01-26T13:11:54.893Z,20.60
2023-01-26T13:12:58.145Z,20.53
2023-01-26T13:13:59.928Z,18.87
2023-01-26T13:15:06.625Z,16.90
2023-01-26T13:16:16.964Z,15.47
2023-01-26T13:17:19.108Z,15.30
2023-01-26T13:18:49.685Z,15.03
2023-01-26T13:19:54.244Z,17.90
2023-01-26T13:20:55.974Z,16.07
2023-01-26T13:21:57.496Z,16.00
2023-01-26T13:22:59.049Z,17.13
2023-01-26T13:24:00.784Z,17.80
2023-01-26T13:25:16.125Z,19.13
2023-01-26T13:26:17.655Z,33.30
2023-01-26T13:27:37.507Z,31.20
2023-01-26T13:28:39.076Z,21.40
2023-01-26T13:29:54.196Z,20.33
2023-01-26T13:31:06.787Z,21.73
2023-01-26T13:32:14.165Z,21.23
2023-01-26T13:33:21.252Z,19.30
2023-01-26T13:35:00.413Z,18.47
2023-01-26T13:36:14.545Z,17.07
2023-01-26T13:37:34.638Z,16.30
2023-01-26T13:38:55.853Z,15.37
2023-01-26T13:40:04.613Z,16.17
2023-01-26T13:41:20.927Z,17.20
2023-01-26T13:42:28.393Z,16.83
2023-01-26T13:43:40.335Z,24.10
2023-01-26T13:44:47.381Z,22.17
2023-01-26T13:46:07.954Z,14.97
2023-01-26T13:47:15.777Z,16.50
2023-01-26T13:48:35.953Z,15.77
2023-01-26T13:49:41.634Z,14.80
2023-01-26T13:50:43.400Z,14.13
2023-01-26T13:51:45.313Z,14.57
2023-01-26T13:52:46.881Z,14.07
2023-01-26T13:53:53.642Z,14.00
2023-01-26T13:55:00.365Z,14.10
2023-01-26T13:56:04.749Z,14.27
2023-01-26T13:57:07.565Z,13.57
2023-01-26T13:58:12.074Z,13.50
2023-01-26T13:59:19.531Z,14.07
2023-01-26T14:00:21.154Z,13.70
2023-01-26T14:01:22.756Z,12.73
2023-01-26T14:02:33.628Z,13.97
2023-01-26T14:03:35.382Z,13.07
2023-01-26T14:04:37.788Z,12.80
2023-01-26T14:05:40.316Z,13.37
2023-01-26T14:06:43.942Z,12.83
2023-01-26T14:07:46.590Z,11.90
2023-01-26T14:08:54.234Z,12.00
2023-01-26T14:10:01.325Z,13.63
2023-01-26T14:11:05.883Z,15.00
2023-01-26T14:12:08.457Z,13.10
2023-01-26T14:13:23.504Z,14.47
2023-01-26T14:14:28.143Z,13.90
2023-01-26T14:15:32.567Z,13.30
2023-01-26T14:16:37.586Z,14.13
2023-01-26T14:17:55.759Z,14.37
2023-01-26T14:19:09.389Z,13.17
2023-01-26T14:20:35.594Z,11.97
2023-01-26T14:21:55.473Z,11.30
2023-01-26T14:23:18.565Z,12.50
2023-01-26T14:24:39.667Z,13.13
2023-01-26T14:25:59.043Z,14.67
2023-01-26T14:27:02.184Z,14.43
2023-01-26T14:28:04.563Z,13.73
2023-01-26T14:29:20.291Z,12.97
2023-01-26T14:30:29.917Z,14.13
2023-01-26T14:31:32.316Z,12.80
2023-01-26T14:32:34.819Z,11.97
2023-01-26T14:33:37.564Z,12.93
2023-01-26T14:34:39.159Z,13.83
2023-01-26T14:35:42.085Z,13.37
2023-01-26T14:36:43.690Z,13.13
2023-01-26T14:37:45.331Z,10.17
2023-01-26T14:38:49.314Z,9.93
2023-01-26T14:40:20.494Z,9.77
2023-01-26T14:41:24.624Z,8.63